createdAt,value
2018-12-05T00:02:39.128Z,-0.50
2018-12-05T00:05:45.420Z,-0.50
2018-12-05T00:08:51.948Z,-0.50
2018-12-05T00:11:58.133Z,-0.50
2018-12-05T00:15:04.763Z,-0.50
2018-12-05T00:18:10.881Z,-0.40
2018-12-05T00:21:17.071Z,-0.50
2018-12-05T00:24:23.202Z,-0.60
2018-12-05T00:27:29.313Z,-0.70
2018-12-05T00:30:35.371Z,-0.70
2018-12-05T00:33:41.786Z,-0.80
2018-12-05T00:36:47.982Z,-0.80
2018-12-05T00:39:54.144Z,-0.70
2018-12-05T00:43:00.546Z,-0.50
2018-12-05T00:46:06.793Z,-0.50
2018-12-05T00:49:12.979Z,-0.50
2018-12-05T00:52:19.341Z,-0.80
2018-12-05T00:55:26.228Z,-0.90
2018-12-05T00:58:32.372Z,-1.00
2018-12-05T01:01:38.514Z,-1.00
2018-12-05T01:04:44.703Z,-1.00
2018-12-05T01:07:50.866Z,-1.20
2018-12-05T01:10:56.981Z,-1.20
2018-12-05T01:14:03.363Z,-1.20
2018-12-05T01:17:09.383Z,-1.00
2018-12-05T01:20:15.621Z,-1.10
2018-12-05T01:23:21.723Z,-1.20
2018-12-05T01:26:27.842Z,-1.20
2018-12-05T01:29:34.140Z,-1.20
2018-12-05T01:32:40.250Z,-1.10
2018-12-05T01:35:46.425Z,-1.10
2018-12-05T01:38:52.554Z,-0.80
2018-12-05T01:41:59.297Z,-0.60
2018-12-05T01:45:05.751Z,-0.60
2018-12-05T01:48:11.752Z,-0.50
2018-12-05T01:51:17.846Z,-0.40
2018-12-05T01:54:24.039Z,-0.40
2018-12-05T01:57:30.037Z,-0.70
2018-12-05T02:00:36.426Z,-0.80
2018-12-05T02:03:42.498Z,-0.90
2018-12-05T02:06:48.784Z,-0.90
2018-12-05T02:09:55.061Z,-0.90
2018-12-05T02:13:01.290Z,-0.90
2018-12-05T02:16:08.105Z,-0.90
2018-12-05T02:19:14.362Z,-1.00
2018-12-05T02:22:20.381Z,-1.00
2018-12-05T02:25:26.702Z,-1.10
2018-12-05T02:28:32.912Z,-1.10
2018-12-05T02:31:39.537Z,-1.10
2018-12-05T02:34:45.678Z,-1.10
2018-12-05T02:37:52.143Z,-1.10
2018-12-05T02:40:58.205Z,-1.20
2018-12-05T02:44:04.877Z,-1.20
2018-12-05T02:47:11.129Z,-1.20
2018-12-05T02:50:17.348Z,-1.20
2018-12-05T02:53:23.463Z,-1.10
2018-12-05T02:56:29.462Z,-0.80
2018-12-05T02:59:36.023Z,-0.70
2018-12-05T03:02:42.206Z,-0.70
2018-12-05T03:05:48.331Z,-0.50
2018-12-05T03:08:54.515Z,-0.40
2018-12-05T03:12:00.581Z,-0.40
2018-12-05T03:15:07.290Z,-0.30
2018-12-05T03:18:13.552Z,-0.60
2018-12-05T03:21:19.690Z,-0.70
2018-12-05T03:24:25.760Z,-0.80
2018-12-05T03:27:31.777Z,-0.90
2018-12-05T03:30:37.822Z,-0.90
2018-12-05T03:33:43.867Z,-0.90
2018-12-05T03:36:50.557Z,-0.60
2018-12-05T03:39:56.599Z,-0.30
2018-12-05T03:43:02.879Z,-0.20
2018-12-05T03:46:09.058Z,0.00
2018-12-05T03:49:15.502Z,0.00
2018-12-05T03:52:21.619Z,-0.10
2018-12-05T03:55:27.875Z,-0.30
2018-12-05T03:58:33.950Z,-0.40
2018-12-05T04:01:40.052Z,-0.30
2018-12-05T04:04:46.141Z,0.00
2018-12-05T04:07:52.196Z,-0.20
2018-12-05T04:10:58.555Z,-0.50
2018-12-05T04:14:05.008Z,-0.60
2018-12-05T04:17:11.370Z,-0.80
2018-12-05T04:20:17.617Z,-0.50
2018-12-05T04:23:25.342Z,-0.30
2018-12-05T04:26:32.110Z,-0.30
2018-12-05T04:29:38.314Z,-0.30
2018-12-05T04:32:44.386Z,-0.40
2018-12-05T04:35:50.383Z,-0.60
2018-12-05T04:38:56.785Z,-0.80
2018-12-05T04:42:02.997Z,-0.90
2018-12-05T04:45:09.094Z,-1.00
2018-12-05T04:48:15.536Z,-1.00
2018-12-05T04:51:21.745Z,-0.80
2018-12-05T04:54:27.793Z,-0.50
2018-12-05T04:57:35.012Z,-0.70
2018-12-05T05:00:41.142Z,-0.90
2018-12-05T05:03:47.197Z,-1.20
2018-12-05T05:06:53.688Z,-1.30
2018-12-05T05:09:59.696Z,-1.30
2018-12-05T05:13:06.473Z,-1.40
2018-12-05T05:16:12.545Z,-1.40
2018-12-05T05:19:18.773Z,-1.40
2018-12-05T05:22:24.991Z,-1.40
2018-12-05T05:25:31.330Z,-1.00
2018-12-05T05:28:37.599Z,-0.80
2018-12-05T05:31:43.595Z,-0.70
2018-12-05T05:34:49.675Z,-0.70
2018-12-05T05:37:55.711Z,-0.70
2018-12-05T05:41:01.795Z,-0.90
2018-12-05T05:44:08.079Z,-0.80
2018-12-05T05:47:14.327Z,-0.70
2018-12-05T05:50:20.791Z,-1.10
2018-12-05T05:53:27.095Z,-1.30
2018-12-05T05:56:33.916Z,-1.40
2018-12-05T05:59:39.900Z,-1.20
2018-12-05T06:02:46.364Z,-0.90
2018-12-05T06:05:52.381Z,-0.70
2018-12-05T06:08:58.586Z,-0.80
2018-12-05T06:12:04.676Z,-1.20
2018-12-05T06:15:10.914Z,-1.40
2018-12-05T06:18:17.504Z,-1.60
2018-12-05T06:21:23.605Z,-1.70
2018-12-05T06:24:30.869Z,-1.90
2018-12-05T06:27:37.188Z,-2.00
2018-12-05T06:30:43.391Z,-2.00
2018-12-05T06:33:50.597Z,-2.10
2018-12-05T06:36:56.655Z,-2.20
2018-12-05T06:40:03.042Z,-2.30
2018-12-05T06:43:09.271Z,-2.30
2018-12-05T06:46:15.245Z,-2.30
2018-12-05T06:49:22.397Z,-2.30
2018-12-05T06:52:28.371Z,-2.30
2018-12-05T06:55:39.130Z,-2.30
2018-12-05T06:58:42.481Z,-2.20
2018-12-05T07:01:48.555Z,-2.20
2018-12-05T07:04:54.615Z,-2.20
2018-12-05T07:08:00.694Z,-1.90
2018-12-05T07:11:06.704Z,-1.90
2018-12-05T07:14:13.319Z,-1.90
2018-12-05T07:17:19.542Z,-1.80
2018-12-05T07:20:25.930Z,-1.60
2018-12-05T07:23:32.020Z,-1.40
2018-12-05T07:26:38.055Z,-1.30
2018-12-05T07:29:44.070Z,-1.10
2018-12-05T07:32:50.318Z,-1.10
2018-12-05T07:35:56.423Z,-1.00
2018-12-05T07:39:04.549Z,-1.30
2018-12-05T07:42:10.997Z,-1.30
2018-12-05T07:45:17.141Z,-1.20
2018-12-05T07:48:23.668Z,-1.20
2018-12-05T07:51:30.861Z,-1.00
2018-12-05T07:54:37.025Z,-0.90
2018-12-05T07:57:43.036Z,-1.00
2018-12-05T08:00:49.418Z,-1.00
2018-12-05T08:03:55.504Z,-0.80
2018-12-05T08:07:02.282Z,-0.60
2018-12-05T08:10:08.449Z,-1.00
2018-12-05T08:13:14.579Z,-1.00
2018-12-05T08:16:20.696Z,-1.00
2018-12-05T08:19:27.001Z,-1.00
2018-12-05T08:22:33.166Z,-1.20
2018-12-05T08:25:40.948Z,-1.30
2018-12-05T08:28:47.442Z,-1.50
2018-12-05T08:31:53.652Z,-1.50
2018-12-05T08:34:59.851Z,-1.50
2018-12-05T08:38:06.454Z,-1.50
2018-12-05T08:41:12.556Z,-1.50
2018-12-05T08:44:18.503Z,-1.40
2018-12-05T08:47:24.569Z,-1.40
2018-12-05T08:50:30.903Z,-1.50
2018-12-05T08:53:37.390Z,-1.50
2018-12-05T08:56:43.510Z,-1.60
2018-12-05T08:59:49.864Z,-1.50
2018-12-05T09:02:56.090Z,-1.10
2018-12-05T09:06:02.228Z,-1.10
2018-12-05T09:09:08.391Z,-1.30
2018-12-05T09:12:15.171Z,-1.20
2018-12-05T09:15:21.472Z,-1.20
2018-12-05T09:18:27.621Z,-1.10
2018-12-05T09:21:34.082Z,-1.00
2018-12-05T09:24:40.223Z,-0.80
2018-12-05T09:27:47.318Z,-0.60
2018-12-05T09:30:53.468Z,-0.10
2018-12-05T09:33:59.614Z,-0.20
2018-12-05T09:37:05.759Z,-0.30
2018-12-05T09:40:12.091Z,-0.40
2018-12-05T09:43:19.479Z,-0.50
2018-12-05T09:46:25.622Z,-0.50
2018-12-05T09:49:31.874Z,-0.50
2018-12-05T09:52:37.995Z,-0.30
2018-12-05T09:55:44.288Z,0.00
2018-12-05T09:58:51.166Z,0.00
2018-12-05T10:01:57.425Z,0.10
2018-12-05T10:05:04.044Z,0.50
2018-12-05T10:08:10.388Z,1.00
2018-12-05T10:11:16.586Z,0.70
2018-12-05T10:14:23.547Z,0.50
2018-12-05T10:17:29.681Z,0.80
2018-12-05T10:20:36.066Z,0.70
2018-12-05T10:23:42.169Z,0.50
2018-12-05T10:26:48.442Z,0.50
2018-12-05T10:29:55.327Z,0.80
2018-12-05T10:33:01.659Z,0.90
2018-12-05T10:36:07.818Z,1.50
2018-12-05T10:39:14.444Z,1.70
2018-12-05T10:42:20.849Z,1.80
2018-12-05T10:45:27.638Z,2.10
2018-12-05T10:48:33.779Z,1.90
2018-12-05T10:51:40.021Z,1.70
2018-12-05T10:54:46.196Z,1.80
2018-12-05T10:57:52.222Z,2.20
2018-12-05T11:02:02.531Z,2.80
2018-12-05T11:05:14.187Z,2.90
2018-12-05T11:15:54.524Z,3.00
2018-12-05T11:19:05.897Z,3.50
2018-12-05T11:22:17.425Z,3.90
2018-12-05T11:25:23.646Z,3.90
2018-12-05T11:28:30.014Z,4.20
2018-12-05T11:31:36.299Z,4.20
2018-12-05T11:34:42.590Z,4.60
2018-12-05T11:37:48.570Z,5.00
2018-12-05T11:40:54.557Z,5.70
2018-12-05T11:44:01.289Z,5.10
2018-12-05T11:47:07.577Z,4.90
2018-12-05T11:50:13.750Z,4.80
2018-12-05T11:53:19.936Z,5.10
2018-12-05T11:56:26.117Z,5.00
2018-12-05T11:59:32.090Z,4.50
2018-12-05T12:02:38.559Z,4.30
2018-12-05T12:05:45.389Z,4.20
2018-12-05T12:08:51.698Z,4.40
2018-12-05T12:11:57.724Z,4.50
2018-12-05T12:15:04.271Z,4.60
2018-12-05T12:18:10.562Z,4.50
2018-12-05T12:21:17.491Z,4.90
2018-12-05T12:24:24.184Z,5.00
2018-12-05T12:27:30.337Z,5.00
2018-12-05T12:30:36.428Z,5.10
2018-12-05T12:33:42.607Z,5.20
2018-12-05T12:36:49.052Z,5.10
2018-12-05T12:39:55.126Z,5.10
2018-12-05T12:43:01.292Z,5.30
2018-12-05T12:46:07.393Z,5.40
2018-12-05T12:49:13.855Z,5.30
2018-12-05T12:52:19.968Z,5.20
2018-12-05T12:55:26.182Z,5.30
2018-12-05T12:58:32.282Z,5.30
2018-12-05T13:01:38.537Z,5.00
2018-12-05T13:04:44.705Z,5.00
2018-12-05T13:07:51.297Z,5.10
2018-12-05T13:10:57.542Z,5.10
2018-12-05T13:14:03.820Z,5.10
2018-12-05T13:17:10.141Z,5.00
2018-12-05T13:20:16.402Z,4.90
2018-12-05T13:23:22.947Z,4.90
2018-12-05T13:26:29.114Z,5.10
2018-12-05T13:29:35.108Z,5.10
2018-12-05T13:32:41.526Z,5.20
2018-12-05T13:35:47.809Z,5.10
2018-12-05T13:38:53.898Z,5.10
2018-12-05T13:42:00.577Z,5.30
2018-12-05T13:45:07.365Z,5.20
2018-12-05T13:48:13.413Z,5.10
2018-12-05T13:51:19.472Z,5.10
2018-12-05T13:54:25.769Z,5.30
2018-12-05T13:57:31.767Z,5.40
2018-12-05T14:00:38.066Z,5.30
2018-12-05T14:03:44.101Z,5.40
2018-12-05T14:06:50.114Z,5.20
2018-12-05T14:09:56.235Z,5.00
2018-12-05T14:13:03.073Z,5.00
2018-12-05T14:16:09.462Z,5.10
2018-12-05T14:19:15.666Z,5.10
2018-12-05T14:22:22.035Z,4.90
2018-12-05T14:25:28.248Z,4.90
2018-12-05T14:28:36.417Z,4.80
2018-12-05T14:31:42.383Z,4.80
2018-12-05T14:34:48.527Z,4.80
2018-12-05T14:37:54.614Z,4.80
2018-12-05T14:41:01.300Z,4.60
2018-12-05T14:44:07.938Z,4.40
2018-12-05T14:47:13.967Z,4.30
2018-12-05T14:50:20.442Z,4.40
2018-12-05T14:53:26.552Z,4.40
2018-12-05T14:56:32.769Z,4.50
2018-12-05T14:59:39.142Z,4.70
2018-12-05T15:02:45.268Z,4.60
2018-12-05T15:05:51.836Z,4.60
2018-12-05T15:08:57.922Z,4.50
2018-12-05T15:12:04.416Z,4.40
2018-12-05T15:15:10.567Z,4.30
2018-12-05T15:18:16.586Z,4.20
2018-12-05T15:21:22.731Z,4.20
2018-12-05T15:24:29.009Z,4.10
2018-12-05T15:27:35.234Z,4.20
2018-12-05T15:30:41.462Z,4.20
2018-12-05T15:33:48.760Z,4.10
2018-12-05T15:36:54.882Z,4.10
2018-12-05T15:40:01.391Z,4.10
2018-12-05T15:43:07.485Z,3.80
2018-12-05T15:46:13.918Z,3.70
2018-12-05T15:49:20.875Z,3.60
2018-12-05T15:52:27.017Z,3.50
2018-12-05T15:55:33.385Z,3.40
2018-12-05T15:58:39.922Z,3.20
2018-12-05T16:01:46.143Z,3.00
2018-12-05T16:04:52.893Z,3.10
2018-12-05T16:07:59.337Z,3.00
2018-12-05T16:11:05.319Z,2.70
2018-12-05T16:14:11.354Z,2.60
2018-12-05T16:17:17.442Z,2.60
2018-12-05T16:20:23.543Z,2.50
2018-12-05T16:23:29.703Z,2.50
2018-12-05T16:26:36.688Z,2.50
2018-12-05T16:29:43.168Z,2.60
2018-12-05T16:32:49.376Z,2.60
2018-12-05T16:35:56.535Z,2.80
2018-12-05T16:39:02.908Z,3.00
2018-12-05T16:42:09.649Z,2.80
2018-12-05T16:45:15.955Z,2.80
2018-12-05T16:48:22.696Z,2.70
2018-12-05T16:51:28.821Z,2.70
2018-12-05T16:54:35.333Z,2.70
2018-12-05T16:57:41.461Z,2.80
2018-12-05T17:00:47.613Z,2.90
2018-12-05T17:03:54.351Z,2.90
2018-12-05T17:07:01.325Z,2.80
2018-12-05T17:10:08.011Z,2.90
2018-12-05T17:13:14.926Z,3.00
2018-12-05T17:16:21.470Z,3.10
2018-12-05T17:19:27.996Z,3.30
2018-12-05T17:22:34.080Z,3.30
2018-12-05T17:25:40.989Z,3.20
2018-12-05T17:28:47.907Z,3.30
2018-12-05T17:31:54.159Z,3.20
2018-12-05T17:35:00.897Z,3.20
2018-12-05T17:38:07.267Z,3.10
2018-12-05T17:41:13.415Z,3.00
2018-12-05T17:44:19.603Z,3.00
2018-12-05T17:47:25.982Z,3.00
2018-12-05T17:50:32.061Z,3.00
2018-12-05T17:53:38.393Z,3.10
2018-12-05T17:56:44.507Z,3.20
2018-12-05T17:59:50.696Z,3.10
2018-12-05T18:02:56.814Z,3.10
2018-12-05T18:06:03.325Z,3.10
2018-12-05T18:09:10.132Z,3.40
2018-12-05T18:12:16.266Z,3.50
2018-12-05T18:15:23.078Z,3.50
2018-12-05T18:18:29.381Z,3.50
2018-12-05T18:21:36.537Z,3.60
2018-12-05T18:24:43.776Z,3.60
2018-12-05T18:27:50.481Z,3.40
2018-12-05T18:30:56.601Z,3.30
2018-12-05T18:34:02.844Z,3.30
2018-12-05T18:37:08.971Z,3.30
2018-12-05T18:40:15.858Z,3.30
2018-12-05T18:43:22.138Z,3.30
2018-12-05T18:46:28.602Z,3.50
2018-12-05T18:49:35.196Z,3.50
2018-12-05T18:52:41.332Z,3.50
2018-12-05T18:55:48.929Z,3.60
2018-12-05T18:58:55.155Z,3.60
2018-12-05T19:02:01.167Z,3.80
2018-12-05T19:05:08.346Z,4.00
2018-12-05T19:08:14.619Z,4.10
2018-12-05T19:11:21.050Z,4.40
2018-12-05T19:14:32.450Z,4.40
2018-12-05T19:17:38.652Z,4.20
2018-12-05T19:20:44.755Z,4.00
2018-12-05T19:23:51.976Z,3.90
2018-12-05T19:26:58.330Z,3.80
2018-12-05T19:30:05.782Z,3.80
2018-12-05T19:33:12.097Z,3.80
2018-12-05T19:36:18.294Z,3.80
2018-12-05T19:39:24.873Z,4.00
2018-12-05T19:42:30.955Z,4.10
2018-12-05T19:45:37.159Z,4.20
2018-12-05T19:48:43.205Z,4.10
2018-12-05T19:51:49.639Z,4.30
2018-12-05T19:54:56.720Z,4.40
2018-12-05T19:58:02.991Z,4.40
2018-12-05T20:01:09.431Z,4.60
2018-12-05T20:04:15.828Z,4.60
2018-12-05T20:07:22.355Z,4.90
2018-12-05T20:10:29.193Z,5.00
2018-12-05T20:13:36.626Z,5.20
2018-12-05T20:16:44.278Z,5.30
2018-12-05T20:19:50.384Z,5.20
2018-12-05T20:22:56.706Z,5.10
2018-12-05T20:26:03.051Z,5.00
2018-12-05T20:29:09.318Z,4.90
2018-12-05T20:32:15.726Z,4.90
2018-12-05T20:35:22.034Z,5.00
2018-12-05T20:38:28.142Z,5.00
2018-12-05T20:41:34.617Z,5.20
2018-12-05T20:44:40.795Z,5.10
2018-12-05T20:47:46.967Z,5.00
2018-12-05T20:50:53.094Z,5.10
2018-12-05T20:53:59.274Z,5.00
2018-12-05T20:57:06.084Z,5.20
2018-12-05T21:00:12.948Z,5.30
2018-12-05T21:03:19.181Z,5.40
2018-12-05T21:06:25.313Z,5.40
2018-12-05T21:09:31.475Z,5.40
2018-12-05T21:12:37.925Z,5.60
2018-12-05T21:15:44.076Z,5.50
2018-12-05T21:18:50.216Z,5.50
2018-12-05T21:21:56.302Z,5.30
2018-12-05T21:25:02.417Z,5.20
2018-12-05T21:28:08.528Z,5.10
2018-12-05T21:31:14.829Z,5.00
2018-12-05T21:34:21.513Z,5.00
2018-12-05T21:37:27.578Z,5.20
2018-12-05T21:40:33.967Z,5.20
2018-12-05T21:43:40.180Z,5.00
2018-12-05T21:46:46.655Z,4.80
2018-12-05T21:49:52.748Z,4.80
2018-12-05T21:52:58.882Z,5.00
2018-12-05T21:56:05.161Z,5.10
2018-12-05T21:59:11.480Z,5.20
2018-12-05T22:02:24.321Z,5.10
2018-12-05T22:05:30.307Z,4.90
2018-12-05T22:08:36.855Z,4.70
2018-12-05T22:11:43.168Z,4.90
2018-12-05T22:14:49.424Z,4.80
2018-12-05T22:17:55.530Z,4.90
2018-12-05T22:21:01.751Z,4.90
2018-12-05T22:24:07.922Z,5.00
2018-12-05T22:27:14.098Z,5.00
2018-12-05T22:30:20.745Z,5.00
2018-12-05T22:33:27.105Z,5.10
2018-12-05T22:36:33.193Z,5.00
2018-12-05T22:39:39.587Z,5.00
2018-12-05T22:42:46.180Z,5.00
2018-12-05T22:45:52.729Z,4.90
2018-12-05T22:48:58.880Z,4.90
2018-12-05T22:52:05.041Z,4.90
2018-12-05T22:55:11.436Z,5.00
2018-12-05T22:58:17.921Z,5.00
2018-12-05T23:01:24.341Z,5.10
2018-12-05T23:04:30.489Z,5.10
2018-12-05T23:07:36.582Z,5.00
2018-12-05T23:10:42.698Z,5.00
2018-12-05T23:13:48.810Z,5.10
2018-12-05T23:16:55.064Z,5.00
2018-12-05T23:20:01.845Z,5.00
2018-12-05T23:23:08.127Z,5.10
2018-12-05T23:26:14.611Z,5.10
2018-12-05T23:29:20.712Z,5.10
2018-12-05T23:32:26.831Z,5.00
2018-12-05T23:35:32.893Z,5.00
2018-12-05T23:38:39.010Z,5.00
2018-12-05T23:41:45.166Z,4.90
2018-12-05T23:44:51.320Z,5.00
2018-12-05T23:47:57.485Z,5.00
2018-12-05T23:51:04.306Z,5.00
2018-12-05T23:54:10.676Z,5.00
2018-12-05T23:57:17.275Z,4.90
